Time;durP1;ratioP1;P1;durP2;ratioP2;P2;SDS_P1;SDS_P2;PMS_P1;PMS_P2;Temp;Humidity;BMP_temperature;BMP_pressure;BME280_temperature;BME280_humidity;BME280_pressure;Samples;Min_cycle;Max_cycle;Signal;HPM_P1;HPM_P2
2023/05/10 00:00:51;;;;;;;12.73;6.53;;;;;;;;;;10469177;28;20035;-73
2023/05/10 00:05:51;;;;;;;12.95;7.97;;;;;;;;;;10444274;28;20411;-73
2023/05/10 00:10:52;;;;;;;11.20;7.38;;;;;;;;;;10428076;28;20387;-73
2023/05/10 00:15:53;;;;;;;12.73;8.30;;;;;;;;;;10427747;28;20041;-73
2023/05/10 00:20:53;;;;;;;12.53;8.13;;;;;;;;;;10460399;28;20463;-73
2023/05/10 00:25:53;;;;;;;10.60;7.57;;;;;;;;;;10467774;28;20286;-73
2023/05/10 00:30:53;;;;;;;16.02;8.75;;;;;;;;;;10468364;28;20111;-73
2023/05/10 00:35:54;;;;;;;14.63;9.35;;;;;;;;;;10465738;28;20423;-74
2023/05/10 00:40:54;;;;;;;17.88;10.45;;;;;;;;;;10467460;28;20059;-73
2023/05/10 00:45:54;;;;;;;17.48;11.07;;;;;;;;;;10467452;28;20430;-72
2023/05/10 00:50:55;;;;;;;17.97;10.57;;;;;;;;;;10449271;28;20413;-72
2023/05/10 00:55:55;;;;;;;20.65;12.02;;;;;;;;;;10466760;28;20601;-72
2023/05/10 01:00:56;;;;;;;21.50;10.97;;;;;;;;;;10467482;28;20390;-73
2023/05/10 01:05:57;;;;;;;18.08;10.93;;;;;;;;;;10465262;28;20028;-73
2023/05/10 01:10:57;;;;;;;15.73;10.93;;;;;;;;;;10466566;28;20087;-73
2023/05/10 01:15:57;;;;;;;17.60;11.23;;;;;;;;;;10457608;28;20086;-73
2023/05/10 01:21:11;;;;;;;20.80;12.03;;;;;;;;;;10429202;28;20361;-73
2023/05/10 01:26:30;;;;;;;14.55;10.13;;;;;;;;;;10438251;28;20450;-73
2023/05/10 01:31:31;;;;;;;12.55;8.23;;;;;;;;;;10417932;28;20024;-73
2023/05/10 01:36:48;;;;;;;13.88;8.70;;;;;;;;;;10464034;28;20513;-73
2023/05/10 01:41:54;;;;;;;11.52;8.20;;;;;;;;;;10464559;28;20040;-73
2023/05/10 01:47:06;;;;;;;11.48;7.75;;;;;;;;;;10464706;28;20037;-73
2023/05/10 01:52:08;;;;;;;7.93;5.97;;;;;;;;;;10464855;28;20471;-73
2023/05/10 01:57:10;;;;;;;10.38;7.10;;;;;;;;;;10463194;28;20044;-73
2023/05/10 02:02:11;;;;;;;11.18;7.25;;;;;;;;;;10463491;28;20037;-73
2023/05/10 02:07:12;;;;;;;7.82;5.53;;;;;;;;;;10435256;28;20024;-73
2023/05/10 02:12:13;;;;;;;10.68;6.80;;;;;;;;;;10410843;28;20035;-73
2023/05/10 02:17:13;;;;;;;8.38;5.63;;;;;;;;;;10425528;28;20035;-73
2023/05/10 02:22:16;;;;;;;6.95;5.05;;;;;;;;;;10445006;28;20035;-73
2023/05/10 02:27:17;;;;;;;10.57;6.15;;;;;;;;;;10430594;28;20025;-73
2023/05/10 02:32:17;;;;;;;9.82;5.88;;;;;;;;;;10405332;28;20471;-73
2023/05/10 02:37:21;;;;;;;5.63;3.55;;;;;;;;;;10431057;28;20028;-73
2023/05/10 02:42:24;;;;;;;11.48;5.55;;;;;;;;;;10434425;28;20123;-73
2023/05/10 02:47:24;;;;;;;7.75;4.93;;;;;;;;;;10430478;28;20045;-73
2023/05/10 02:52:31;;;;;;;9.95;6.18;;;;;;;;;;10414961;28;20033;-73
2023/05/10 02:57:34;;;;;;;8.60;5.72;;;;;;;;;;10443932;28;20127;-73
2023/05/10 03:02:36;;;;;;;11.38;5.68;;;;;;;;;;10445330;28;20027;-73
2023/05/10 03:07:36;;;;;;;13.52;6.22;;;;;;;;;;10430563;28;20028;-74
2023/05/10 03:13:01;;;;;;;9.00;5.50;;;;;;;;;;10428280;28;20032;-73
2023/05/10 03:18:05;;;;;;;9.32;5.93;;;;;;;;;;10398285;28;20279;-73
2023/05/10 03:23:17;;;;;;;7.30;5.43;;;;;;;;;;10410912;28;20108;-74
2023/05/10 03:28:18;;;;;;;12.98;5.10;;;;;;;;;;10413706;28;20094;-73
2023/05/10 03:33:18;;;;;;;8.23;5.32;;;;;;;;;;10437157;28;20036;-73
2023/05/10 03:38:19;;;;;;;8.30;5.97;;;;;;;;;;10455112;28;20460;-73
2023/05/10 03:43:19;;;;;;;8.37;6.03;;;;;;;;;;10429245;28;20097;-73
2023/05/10 03:48:19;;;;;;;8.33;5.53;;;;;;;;;;10456358;28;20056;-73
2023/05/10 03:53:20;;;;;;;9.30;5.93;;;;;;;;;;10443887;28;20472;-74
2023/05/10 03:58:20;;;;;;;8.97;6.20;;;;;;;;;;10450505;28;20599;-74
2023/05/10 04:03:20;;;;;;;10.27;6.13;;;;;;;;;;10457005;28;20036;-73
2023/05/10 04:08:21;;;;;;;9.30;6.15;;;;;;;;;;10450436;28;20032;-73
2023/05/10 04:13:22;;;;;;;10.32;6.47;;;;;;;;;;10410524;28;20036;-73
2023/05/10 04:18:22;;;;;;;8.20;5.80;;;;;;;;;;10458532;28;20737;-75
2023/05/10 04:23:23;;;;;;;8.75;5.85;;;;;;;;;;10431840;28;20024;-74
2023/05/10 04:28:23;;;;;;;9.65;5.82;;;;;;;;;;10441512;28;20067;-74
2023/05/10 04:33:24;;;;;;;10.93;6.20;;;;;;;;;;10454855;28;20043;-74
2023/05/10 04:38:24;;;;;;;12.73;7.05;;;;;;;;;;10442011;28;20287;-75
2023/05/10 04:43:24;;;;;;;12.93;7.25;;;;;;;;;;10430398;28;20476;-74
2023/05/10 04:48:25;;;;;;;10.38;5.88;;;;;;;;;;10466835;28;20518;-74
2023/05/10 04:53:25;;;;;;;10.00;6.00;;;;;;;;;;10465136;28;20146;-74
2023/05/10 04:58:25;;;;;;;9.03;6.37;;;;;;;;;;10462233;28;20416;-73
2023/05/10 05:03:26;;;;;;;10.07;6.30;;;;;;;;;;10439668;28;20511;-73
2023/05/10 05:08:26;;;;;;;10.57;7.33;;;;;;;;;;10445628;28;20481;-74
2023/05/10 05:13:27;;;;;;;12.88;7.55;;;;;;;;;;10460258;28;20032;-73
2023/05/10 05:18:27;;;;;;;10.20;6.45;;;;;;;;;;10406527;28;20440;-74
2023/05/10 05:23:27;;;;;;;12.77;7.40;;;;;;;;;;10445107;28;20016;-74
2023/05/10 05:28:32;;;;;;;12.88;7.88;;;;;;;;;;10464931;28;20497;-73
2023/05/10 05:33:33;;;;;;;15.40;8.02;;;;;;;;;;10464789;28;20020;-75
2023/05/10 05:38:33;;;;;;;12.60;7.45;;;;;;;;;;10465815;28;20031;-74
2023/05/10 05:43:33;;;;;;;14.45;8.13;;;;;;;;;;10464478;28;20024;-74
2023/05/10 05:48:34;;;;;;;13.27;7.60;;;;;;;;;;10463547;28;20552;-75
2023/05/10 05:53:37;;;;;;;15.68;8.38;;;;;;;;;;10445862;28;20508;-75
2023/05/10 05:58:37;;;;;;;17.52;10.13;;;;;;;;;;10441912;28;20038;-75
2023/05/10 06:03:38;;;;;;;22.75;11.10;;;;;;;;;;10463617;28;20027;-75
2023/05/10 06:08:51;;;;;;;16.80;10.83;;;;;;;;;;10433194;28;20166;-74
2023/05/10 06:13:51;;;;;;;16.92;11.07;;;;;;;;;;10445203;28;20266;-74
2023/05/10 06:18:51;;;;;;;17.50;9.88;;;;;;;;;;10462849;28;20522;-74
2023/05/10 06:23:52;;;;;;;17.58;9.98;;;;;;;;;;10462974;28;20021;-74
2023/05/10 06:28:52;;;;;;;17.45;10.52;;;;;;;;;;10461324;28;20060;-74
2023/05/10 06:33:53;;;;;;;16.77;9.65;;;;;;;;;;10444323;28;20513;-74
2023/05/10 06:38:54;;;;;;;15.90;8.65;;;;;;;;;;10445391;28;20035;-74
2023/05/10 06:43:55;;;;;;;18.98;9.73;;;;;;;;;;10462692;28;20032;-74
2023/05/10 06:48:55;;;;;;;17.95;9.88;;;;;;;;;;10462476;28;20141;-74
2023/05/10 06:53:55;;;;;;;18.98;9.77;;;;;;;;;;10457010;28;20041;-76
2023/05/10 06:58:56;;;;;;;17.38;10.48;;;;;;;;;;10436023;28;20021;-75
2023/05/10 07:03:56;;;;;;;16.10;10.77;;;;;;;;;;10459445;28;20052;-74
2023/05/10 07:08:56;;;;;;;27.53;10.93;;;;;;;;;;10444193;28;20041;-74
2023/05/10 07:13:57;;;;;;;14.00;8.00;;;;;;;;;;10461304;28;20439;-75
2023/05/10 07:18:57;;;;;;;11.98;7.90;;;;;;;;;;10461922;28;20834;-75
2023/05/10 07:23:58;;;;;;;13.20;8.67;;;;;;;;;;10416574;28;20024;-74
2023/05/10 07:28:58;;;;;;;23.27;10.40;;;;;;;;;;10461184;28;20407;-75
2023/05/10 07:33:58;;;;;;;20.33;10.30;;;;;;;;;;10459443;28;20270;-75
2023/05/10 07:38:58;;;;;;;15.50;8.70;;;;;;;;;;10462225;28;20035;-75
2023/05/10 07:43:59;;;;;;;14.93;9.30;;;;;;;;;;10461401;28;20482;-75
2023/05/10 07:48:59;;;;;;;20.45;11.40;;;;;;;;;;10461121;28;20475;-76
2023/05/10 07:53:59;;;;;;;16.20;10.20;;;;;;;;;;10461230;28;20036;-73
2023/05/10 07:59:00;;;;;;;17.27;11.07;;;;;;;;;;10461053;28;20101;-74
2023/05/10 08:04:01;;;;;;;30.83;12.02;;;;;;;;;;10460948;28;20474;-74
2023/05/10 08:09:02;;;;;;;21.73;11.10;;;;;;;;;;10461051;28;20143;-74
2023/05/10 08:14:02;;;;;;;16.42;10.40;;;;;;;;;;10464659;28;20029;-74
2023/05/10 08:19:02;;;;;;;16.60;9.68;;;;;;;;;;10468496;28;20380;-74
2023/05/10 08:24:03;;;;;;;25.10;9.27;;;;;;;;;;10468531;28;20031;-74
2023/05/10 08:29:03;;;;;;;14.67;9.73;;;;;;;;;;10468030;28;20028;-74
2023/05/10 08:34:03;;;;;;;16.47;10.83;;;;;;;;;;10467267;28;20028;-74
2023/05/10 08:39:04;;;;;;;14.97;10.43;;;;;;;;;;10450119;28;20376;-74
2023/05/10 08:44:05;;;;;;;20.13;10.47;;;;;;;;;;10449490;28;20480;-75
2023/05/10 08:49:08;;;;;;;18.90;11.35;;;;;;;;;;10466938;28;20056;-74
2023/05/10 08:54:08;;;;;;;17.83;9.15;;;;;;;;;;10449061;28;20035;-73
2023/05/10 08:59:09;;;;;;;16.88;11.05;;;;;;;;;;10466591;28;20028;-73
2023/05/10 09:04:09;;;;;;;13.57;9.47;;;;;;;;;;10465945;28;20040;-76
2023/05/10 09:09:09;;;;;;;15.13;9.93;;;;;;;;;;10466515;28;20267;-74
2023/05/10 09:14:12;;;;;;;20.30;10.85;;;;;;;;;;10466223;28;20033;-75
2023/05/10 09:19:12;;;;;;;16.13;11.30;;;;;;;;;;10447190;28;20028;-75
2023/05/10 09:24:12;;;;;;;16.73;10.83;;;;;;;;;;10464537;28;20390;-74
2023/05/10 09:29:13;;;;;;;14.63;9.07;;;;;;;;;;10465490;28;20435;-74
2023/05/10 09:34:20;;;;;;;16.88;11.73;;;;;;;;;;10451098;28;20032;-74
2023/05/10 09:39:32;;;;;;;15.53;11.10;;;;;;;;;;10464509;28;20028;-77
2023/05/10 09:44:33;;;;;;;11.82;8.73;;;;;;;;;;10446371;28;20375;-75
2023/05/10 09:49:34;;;;;;;16.15;10.73;;;;;;;;;;10465219;28;20374;-75
2023/05/10 09:54:35;;;;;;;14.80;8.77;;;;;;;;;;10465864;28;20024;-75
2023/05/10 09:59:42;;;;;;;22.83;9.65;;;;;;;;;;10464569;28;20021;-76
2023/05/10 10:04:43;;;;;;;14.98;8.68;;;;;;;;;;10464060;28;20109;-76
2023/05/10 10:09:43;;;;;;;9.77;7.20;;;;;;;;;;10464115;28;20025;-75
2023/05/10 10:14:44;;;;;;;11.70;8.80;;;;;;;;;;10460109;28;20078;-75
2023/05/10 10:19:45;;;;;;;11.65;8.10;;;;;;;;;;10450571;28;20022;-75
2023/05/10 10:24:45;;;;;;;16.70;8.73;;;;;;;;;;10463880;28;20039;-75
2023/05/10 10:30:01;;;;;;;10.63;7.22;;;;;;;;;;10463480;28;20131;-75
2023/05/10 10:35:02;;;;;;;13.45;8.82;;;;;;;;;;10463242;28;20032;-75
2023/05/10 10:40:22;;;;;;;10.63;7.43;;;;;;;;;;10462584;28;20017;-75
2023/05/10 10:45:24;;;;;;;13.30;7.43;;;;;;;;;;10430130;28;20478;-75
2023/05/10 10:50:24;;;;;;;9.32;5.13;;;;;;;;;;10419562;28;20056;-74
2023/05/10 10:55:26;;;;;;;14.87;6.40;;;;;;;;;;10419746;28;20458;-75
2023/05/10 11:00:30;;;;;;;14.15;6.20;;;;;;;;;;10421973;28;20431;-75
2023/05/10 11:05:35;;;;;;;10.65;7.40;;;;;;;;;;10421465;28;20024;-74
2023/05/10 11:10:36;;;;;;;6.70;4.88;;;;;;;;;;10421722;28;20024;-78
2023/05/10 11:15:38;;;;;;;11.35;7.47;;;;;;;;;;10368374;28;20033;-78
2023/05/10 11:21:04;;;;;;;12.65;7.60;;;;;;;;;;10360532;28;20034;-80
2023/05/10 11:26:09;;;;;;;19.23;6.93;;;;;;;;;;10356193;28;20863;-76
2023/05/10 11:31:09;;;;;;;10.88;7.57;;;;;;;;;;10362227;28;20113;-76
2023/05/10 11:36:16;;;;;;;14.25;8.98;;;;;;;;;;10358504;28;20030;-75
2023/05/10 11:41:18;;;;;;;12.00;7.50;;;;;;;;;;10358609;28;20021;-76
2023/05/10 11:46:20;;;;;;;12.32;7.57;;;;;;;;;;10360660;28;20689;-75
2023/05/10 11:51:21;;;;;;;14.32;7.00;;;;;;;;;;10400211;28;20359;-76
2023/05/10 11:56:23;;;;;;;11.90;7.65;;;;;;;;;;10403888;28;20030;-76
2023/05/10 12:01:27;;;;;;;13.50;8.23;;;;;;;;;;10411555;28;20519;-75
2023/05/10 12:06:28;;;;;;;11.30;7.93;;;;;;;;;;10389246;28;20033;-75
2023/05/10 12:11:29;;;;;;;10.85;8.15;;;;;;;;;;10399741;28;20022;-75
2023/05/10 12:16:30;;;;;;;13.10;8.00;;;;;;;;;;10404612;28;20033;-75
2023/05/10 12:21:31;;;;;;;12.13;7.45;;;;;;;;;;10399600;28;20036;-74
2023/05/10 12:26:31;;;;;;;14.02;8.70;;;;;;;;;;10404947;28;20039;-75
2023/05/10 12:31:31;;;;;;;14.07;7.57;;;;;;;;;;10402590;28;20701;-75
2023/05/10 12:36:32;;;;;;;15.32;9.00;;;;;;;;;;10385220;28;20056;-75
2023/05/10 12:41:32;;;;;;;13.10;7.20;;;;;;;;;;10390129;28;20013;-75
2023/05/10 12:46:33;;;;;;;13.52;7.50;;;;;;;;;;10387516;28;20041;-75
2023/05/10 12:51:33;;;;;;;14.23;6.73;;;;;;;;;;10393311;28;20036;-75
2023/05/10 12:56:33;;;;;;;11.17;7.90;;;;;;;;;;10417322;28;20039;-76
2023/05/10 13:01:34;;;;;;;12.10;6.57;;;;;;;;;;10397665;28;20045;-74
2023/05/10 13:06:35;;;;;;;10.60;6.15;;;;;;;;;;10399744;28;20029;-76
2023/05/10 13:11:35;;;;;;;8.48;6.00;;;;;;;;;;10406250;28;20033;-74
2023/05/10 13:16:35;;;;;;;13.30;6.50;;;;;;;;;;10410845;28;20029;-75
2023/05/10 13:21:36;;;;;;;11.50;7.65;;;;;;;;;;10399196;28;20028;-74
2023/05/10 13:26:36;;;;;;;12.40;7.43;;;;;;;;;;10400601;28;20029;-74
2023/05/10 13:31:36;;;;;;;11.02;7.35;;;;;;;;;;10399888;28;20052;-75
2023/05/10 13:36:37;;;;;;;9.50;6.18;;;;;;;;;;10396826;28;20025;-75
2023/05/10 13:41:38;;;;;;;11.32;6.65;;;;;;;;;;10399199;28;20014;-75
2023/05/10 13:46:39;;;;;;;15.52;8.60;;;;;;;;;;10397696;28;20047;-75
2023/05/10 13:51:39;;;;;;;10.20;7.10;;;;;;;;;;10395411;28;20024;-75
2023/05/10 13:56:40;;;;;;;14.50;7.87;;;;;;;;;;10393281;28;20450;-76
2023/05/10 14:01:41;;;;;;;14.00;7.85;;;;;;;;;;10408096;28;20037;-75
2023/05/10 14:06:41;;;;;;;18.55;7.55;;;;;;;;;;10396189;28;20079;-74
2023/05/10 14:11:43;;;;;;;17.77;7.97;;;;;;;;;;10402608;28;20073;-75
2023/05/10 14:16:44;;;;;;;13.82;7.43;;;;;;;;;;10401738;28;20398;-76
2023/05/10 14:21:44;;;;;;;10.68;6.45;;;;;;;;;;10392542;28;20041;-74
2023/05/10 14:26:44;;;;;;;13.98;7.70;;;;;;;;;;10395135;28;20582;-81
2023/05/10 14:31:44;;;;;;;15.17;7.93;;;;;;;;;;10406136;28;20097;-76
2023/05/10 14:36:45;;;;;;;9.30;6.85;;;;;;;;;;10422210;28;20478;-75
2023/05/10 14:41:46;;;;;;;10.77;5.78;;;;;;;;;;10430534;28;20047;-75
2023/05/10 14:46:48;;;;;;;15.25;7.93;;;;;;;;;;10462090;28;20491;-75
2023/05/10 14:51:48;;;;;;;10.35;6.28;;;;;;;;;;10463207;28;20040;-75
2023/05/10 14:56:49;;;;;;;15.25;8.35;;;;;;;;;;10463260;28;20035;-75
2023/05/10 15:01:50;;;;;;;13.93;8.48;;;;;;;;;;10451958;28;20449;-75
2023/05/10 15:06:50;;;;;;;10.60;7.43;;;;;;;;;;10421678;28;20487;-76
2023/05/10 15:11:50;;;;;;;11.93;6.22;;;;;;;;;;10449824;28;20113;-74
2023/05/10 15:16:53;;;;;;;12.25;7.38;;;;;;;;;;10463285;28;20033;-76
2023/05/10 15:21:53;;;;;;;13.40;6.80;;;;;;;;;;10471855;28;20161;-75
2023/05/10 15:26:54;;;;;;;16.98;7.75;;;;;;;;;;10470860;28;20088;-75
2023/05/10 15:31:54;;;;;;;11.80;6.95;;;;;;;;;;10470572;28;20861;-76
2023/05/10 15:36:54;;;;;;;12.57;7.77;;;;;;;;;;10452084;28;20025;-76
2023/05/10 15:41:55;;;;;;;11.75;7.45;;;;;;;;;;10470520;28;20475;-73
2023/05/10 15:46:55;;;;;;;10.65;7.60;;;;;;;;;;10469707;28;20056;-77
2023/05/10 15:51:56;;;;;;;9.90;6.95;;;;;;;;;;10440317;28;20453;-75
2023/05/10 15:56:56;;;;;;;13.43;6.10;;;;;;;;;;10446796;28;20024;-76
2023/05/10 16:01:56;;;;;;;17.77;8.57;;;;;;;;;;10469545;28;20086;-76
2023/05/10 16:06:57;;;;;;;14.33;7.13;;;;;;;;;;10468565;28;20025;-75
2023/05/10 16:11:59;;;;;;;10.97;6.87;;;;;;;;;;10469138;28;20028;-76
2023/05/10 16:16:59;;;;;;;14.50;6.95;;;;;;;;;;10468010;28;20036;-75
2023/05/10 16:22:00;;;;;;;14.13;8.65;;;;;;;;;;10468617;28;20078;-76
2023/05/10 16:27:02;;;;;;;13.75;7.80;;;;;;;;;;10450695;28;20509;-76
2023/05/10 16:32:02;;;;;;;14.38;8.68;;;;;;;;;;10454278;28;20064;-74
2023/05/10 16:37:02;;;;;;;14.20;8.27;;;;;;;;;;10467972;28;20422;-74
2023/05/10 16:42:03;;;;;;;12.10;8.50;;;;;;;;;;10454483;28;20025;-79
2023/05/10 16:47:03;;;;;;;18.30;8.63;;;;;;;;;;10457689;28;20056;-77
2023/05/10 16:52:03;;;;;;;16.70;10.17;;;;;;;;;;10377335;28;20186;-76
2023/05/10 16:57:04;;;;;;;13.73;8.80;;;;;;;;;;10401664;28;20060;-76
2023/05/10 17:02:04;;;;;;;12.17;8.20;;;;;;;;;;10407662;28;20029;-75
2023/05/10 17:07:05;;;;;;;14.85;9.35;;;;;;;;;;10403679;28;20174;-77
2023/05/10 17:12:05;;;;;;;12.18;8.07;;;;;;;;;;10402985;28;20029;-76
2023/05/10 17:17:08;;;;;;;19.50;8.00;;;;;;;;;;10406883;28;20060;-76
2023/05/10 17:22:08;;;;;;;14.02;8.25;;;;;;;;;;10401110;28;20448;-77
2023/05/10 17:27:09;;;;;;;16.73;9.65;;;;;;;;;;10399973;28;20533;-76
2023/05/10 17:32:09;;;;;;;13.50;9.27;;;;;;;;;;10388919;28;20515;-77
2023/05/10 17:37:10;;;;;;;15.87;9.47;;;;;;;;;;10386763;28;20045;-77
2023/05/10 17:42:16;;;;;;;14.57;7.90;;;;;;;;;;10401376;28;20016;-78
2023/05/10 17:47:16;;;;;;;16.48;9.60;;;;;;;;;;10404513;28;20081;-78
2023/05/10 17:52:17;;;;;;;12.30;7.63;;;;;;;;;;10403317;28;20039;-80
2023/05/10 17:57:17;;;;;;;18.55;8.50;;;;;;;;;;10406184;28;20450;-77
2023/05/10 18:02:17;;;;;;;12.23;8.40;;;;;;;;;;10396153;28;20515;-76
2023/05/10 18:07:19;;;;;;;11.73;6.97;;;;;;;;;;10406507;28;20025;-77
2023/05/10 18:12:19;;;;;;;12.15;8.60;;;;;;;;;;10404231;28;20024;-76
2023/05/10 18:17:20;;;;;;;12.57;8.20;;;;;;;;;;10399265;28;20713;-79
2023/05/10 18:22:20;;;;;;;12.90;8.10;;;;;;;;;;10399235;28;20028;-75
2023/05/10 18:27:41;;;;;;;14.00;8.40;;;;;;;;;;10389826;28;20021;-76
2023/05/10 18:32:41;;;;;;;15.35;8.77;;;;;;;;;;10415701;28;20829;-75
2023/05/10 18:37:42;;;;;;;17.60;8.68;;;;;;;;;;10461016;28;20051;-76
2023/05/10 18:42:42;;;;;;;13.40;8.73;;;;;;;;;;10457606;28;20020;-74
2023/05/10 18:47:42;;;;;;;14.82;8.48;;;;;;;;;;10463871;28;20068;-75
2023/05/10 18:52:43;;;;;;;11.35;7.45;;;;;;;;;;10462072;28;20040;-75
2023/05/10 18:57:44;;;;;;;12.57;8.60;;;;;;;;;;10444396;28;20081;-75
2023/05/10 19:02:44;;;;;;;13.27;8.80;;;;;;;;;;10463115;28;20291;-75
2023/05/10 19:07:44;;;;;;;16.05;8.93;;;;;;;;;;10463331;28;20039;-75
2023/05/10 19:12:45;;;;;;;13.23;8.70;;;;;;;;;;10462993;28;20524;-75
2023/05/10 19:17:45;;;;;;;15.23;9.40;;;;;;;;;;10444857;28;20146;-75
2023/05/10 19:22:45;;;;;;;14.03;9.07;;;;;;;;;;10463480;28;20025;-75
2023/05/10 19:27:45;;;;;;;16.15;9.38;;;;;;;;;;10462259;28;20387;-76
2023/05/10 19:32:46;;;;;;;14.75;9.65;;;;;;;;;;10462949;28;20048;-75
2023/05/10 19:37:46;;;;;;;16.95;9.50;;;;;;;;;;10462432;28;20025;-76
2023/05/10 19:42:47;;;;;;;14.93;9.63;;;;;;;;;;10429208;28;20079;-74
2023/05/10 19:47:47;;;;;;;15.32;9.80;;;;;;;;;;10444224;28;20299;-75
2023/05/10 19:52:48;;;;;;;17.67;10.17;;;;;;;;;;10461089;28;20456;-74
2023/05/10 19:57:48;;;;;;;14.85;9.13;;;;;;;;;;10462116;28;20025;-75
2023/05/10 20:02:49;;;;;;;14.87;8.97;;;;;;;;;;10415659;28;20026;-75
2023/05/10 20:07:49;;;;;;;12.23;8.32;;;;;;;;;;10430853;28;20442;-75
2023/05/10 20:12:51;;;;;;;15.05;8.60;;;;;;;;;;10467899;28;20035;-75
2023/05/10 20:17:54;;;;;;;11.80;8.18;;;;;;;;;;10459512;28;20037;-75
2023/05/10 20:22:55;;;;;;;14.20;8.00;;;;;;;;;;10469459;28;20020;-75
2023/05/10 20:27:55;;;;;;;12.23;8.20;;;;;;;;;;10468788;28;20036;-75
2023/05/10 20:32:55;;;;;;;16.97;8.93;;;;;;;;;;10466709;28;20028;-75
2023/05/10 20:37:56;;;;;;;13.97;8.30;;;;;;;;;;10468501;28;20278;-75
2023/05/10 20:42:56;;;;;;;12.85;8.07;;;;;;;;;;10450466;28;20032;-75
2023/05/10 20:47:57;;;;;;;12.65;9.07;;;;;;;;;;10468281;28;20101;-75
2023/05/10 20:52:57;;;;;;;13.95;9.48;;;;;;;;;;10467836;28;20039;-75
2023/05/10 20:57:57;;;;;;;17.52;9.10;;;;;;;;;;10428530;28;20041;-75
2023/05/10 21:02:57;;;;;;;17.63;9.13;;;;;;;;;;10438590;28;20048;-75
2023/05/10 21:07:58;;;;;;;16.65;9.82;;;;;;;;;;10467743;28;20633;-75
2023/05/10 21:12:58;;;;;;;16.27;9.60;;;;;;;;;;10449490;28;20102;-75
2023/05/10 21:17:59;;;;;;;15.60;9.23;;;;;;;;;;10466324;28;20090;-74
2023/05/10 21:22:59;;;;;;;18.13;9.20;;;;;;;;;;10465593;28;20115;-75
2023/05/10 21:27:59;;;;;;;14.90;7.93;;;;;;;;;;10448290;28;20526;-75
2023/05/10 21:33:01;;;;;;;11.38;7.88;;;;;;;;;;10439614;28;20028;-76
2023/05/10 21:38:01;;;;;;;17.40;8.63;;;;;;;;;;10399087;28;20492;-76
2023/05/10 21:43:01;;;;;;;13.40;8.73;;;;;;;;;;10393453;28;20096;-77
2023/05/10 21:48:02;;;;;;;15.43;8.85;;;;;;;;;;10392963;28;20092;-77
2023/05/10 21:53:03;;;;;;;13.63;8.45;;;;;;;;;;10393865;28;20033;-77
2023/05/10 21:58:03;;;;;;;11.23;7.80;;;;;;;;;;10399287;28;20048;-76
2023/05/10 22:03:03;;;;;;;10.93;7.57;;;;;;;;;;10400830;28;20030;-77
2023/05/10 22:08:04;;;;;;;10.77;7.70;;;;;;;;;;10390075;28;20420;-78
2023/05/10 22:13:05;;;;;;;14.02;8.57;;;;;;;;;;10396563;28;20025;-78
2023/05/10 22:18:05;;;;;;;13.43;9.23;;;;;;;;;;10391831;28;20033;-77
2023/05/10 22:23:05;;;;;;;12.80;8.77;;;;;;;;;;10390059;28;20488;-76
2023/05/10 22:28:06;;;;;;;12.75;8.35;;;;;;;;;;10395849;28;20474;-76
2023/05/10 22:33:07;;;;;;;12.38;9.25;;;;;;;;;;10397805;28;20429;-71
2023/05/10 22:38:07;;;;;;;15.38;10.07;;;;;;;;;;10404072;28;20028;-75
2023/05/10 22:43:07;;;;;;;18.13;9.67;;;;;;;;;;10407726;28;20579;-76
2023/05/10 22:48:08;;;;;;;14.53;11.00;;;;;;;;;;10407308;28;20338;-76
2023/05/10 22:53:09;;;;;;;14.52;9.65;;;;;;;;;;10393969;28;20032;-77
2023/05/10 22:58:10;;;;;;;15.80;9.60;;;;;;;;;;10403213;28;20043;-77
2023/05/10 23:03:10;;;;;;;13.45;9.82;;;;;;;;;;10406347;28;20640;-74
2023/05/10 23:08:10;;;;;;;17.95;10.55;;;;;;;;;;10405719;28;20060;-71
2023/05/10 23:13:10;;;;;;;11.80;8.50;;;;;;;;;;10390132;28;20029;-73
2023/05/10 23:18:11;;;;;;;16.55;9.60;;;;;;;;;;10428824;28;20561;-72
2023/05/10 23:23:12;;;;;;;12.20;6.97;;;;;;;;;;10459488;28;20463;-72
2023/05/10 23:28:12;;;;;;;14.27;8.30;;;;;;;;;;10447750;28;20483;-72
2023/05/10 23:33:13;;;;;;;9.23;7.07;;;;;;;;;;10430290;28;20020;-71
2023/05/10 23:38:13;;;;;;;9.77;7.50;;;;;;;;;;10441525;28;20024;-71
2023/05/10 23:43:15;;;;;;;13.10;8.02;;;;;;;;;;10441772;28;20038;-72
2023/05/10 23:48:15;;;;;;;10.85;7.35;;;;;;;;;;10454919;28;20051;-72
2023/05/10 23:53:15;;;;;;;11.90;6.85;;;;;;;;;;10452820;28;20029;-71
2023/05/10 23:58:16;;;;;;;10.15;6.88;;;;;;;;;;10459655;28;20032;-72
